Time;durP1;ratioP1;P1;durP2;ratioP2;P2;SDS_P1;SDS_P2;PMS_P1;PMS_P2;Temp;Humidity;BMP_temperature;BMP_pressure;BME280_temperature;BME280_humidity;BME280_pressure;Samples;Min_cycle;Max_cycle;Signal;HPM_P1;HPM_P2
2021/05/30 00:01:06;;;;;;;10.73;9.65;;;10.40;99.90;;;;;;5025506;28;20219;-37
2021/05/30 00:03:32;;;;;;;12.75;9.23;;;10.40;99.90;;;;;;5030665;28;20203;-40
2021/05/30 00:06:00;;;;;;;11.77;10.07;;;10.30;99.90;;;;;;5019449;28;20781;-38
2021/05/30 00:08:27;;;;;;;11.68;9.68;;;10.10;99.90;;;;;;5031702;28;20199;-39
2021/05/30 00:10:54;;;;;;;11.40;10.25;;;9.90;99.90;;;;;;5030864;28;20258;-37
2021/05/30 00:13:21;;;;;;;10.35;9.32;;;9.90;99.90;;;;;;5031853;28;20215;-38
2021/05/30 00:15:48;;;;;;;10.52;9.27;;;9.90;99.90;;;;;;5030259;28;20787;-37
2021/05/30 00:18:15;;;;;;;11.18;10.00;;;9.90;99.90;;;;;;5031984;28;20324;-38
2021/05/30 00:20:42;;;;;;;11.57;10.38;;;9.90;99.90;;;;;;5033134;28;20195;-38
2021/05/30 00:23:08;;;;;;;13.77;10.23;;;9.90;99.90;;;;;;5032627;28;20250;-38
2021/05/30 00:25:36;;;;;;;10.15;9.15;;;9.70;99.90;;;;;;5031594;28;20215;-39
2021/05/30 00:28:03;;;;;;;11.35;10.27;;;9.50;99.90;;;;;;5029901;28;20231;-39
2021/05/30 00:30:30;;;;;;;13.20;10.52;;;9.50;99.90;;;;;;5030632;28;20226;-38
2021/05/30 00:32:57;;;;;;;12.15;10.95;;;9.50;99.90;;;;;;5031385;28;20199;-37
2021/05/30 00:35:24;;;;;;;11.93;10.38;;;9.30;99.90;;;;;;5031289;28;20234;-37
2021/05/30 00:37:50;;;;;;;12.38;11.15;;;9.30;99.90;;;;;;5031145;28;20662;-40
2021/05/30 00:40:17;;;;;;;11.57;10.38;;;9.30;99.90;;;;;;5030714;28;20583;-38
2021/05/30 00:42:45;;;;;;;12.43;10.90;;;9.30;99.90;;;;;;5030900;28;20219;-37
2021/05/30 00:45:12;;;;;;;12.05;10.82;;;9.30;99.90;;;;;;5031344;28;20216;-37
2021/05/30 00:47:39;;;;;;;12.60;11.10;;;9.40;99.90;;;;;;5026384;28;20200;-38
2021/05/30 00:50:07;;;;;;;13.43;12.00;;;9.40;99.90;;;;;;5030621;28;20235;-37
2021/05/30 00:52:35;;;;;;;12.60;11.07;;;9.40;99.90;;;;;;5019666;28;20759;-37
2021/05/30 00:55:02;;;;;;;13.52;11.45;;;9.40;99.90;;;;;;5030968;28;20277;-38
2021/05/30 00:57:30;;;;;;;12.90;10.93;;;9.40;99.90;;;;;;5031122;28;20219;-38
2021/05/30 00:59:58;;;;;;;13.32;11.43;;;9.40;99.90;;;;;;5030769;28;20195;-37
2021/05/30 01:02:24;;;;;;;13.55;11.23;;;9.30;99.90;;;;;;5030903;28;20217;-37
2021/05/30 01:04:51;;;;;;;11.50;10.35;;;9.20;99.90;;;;;;5029282;28;20222;-37
2021/05/30 01:07:19;;;;;;;17.05;11.57;;;9.10;99.90;;;;;;5030643;28;20311;-37
2021/05/30 01:09:48;;;;;;;18.55;12.27;;;9.10;99.90;;;;;;5030578;28;20219;-39
2021/05/30 01:12:16;;;;;;;12.82;11.52;;;9.10;99.90;;;;;;5030713;28;20214;-38
2021/05/30 01:14:43;;;;;;;12.32;10.93;;;9.20;99.90;;;;;;5030827;28;20281;-37
2021/05/30 01:17:12;;;;;;;11.85;10.05;;;9.10;99.90;;;;;;5030665;28;20705;-37
2021/05/30 01:19:39;;;;;;;13.82;12.50;;;9.00;99.90;;;;;;5030415;28;20196;-38
2021/05/30 01:22:08;;;;;;;12.52;11.23;;;9.00;99.90;;;;;;5030531;28;20211;-37
2021/05/30 01:24:37;;;;;;;12.88;11.48;;;8.90;99.90;;;;;;5030492;28;20306;-38
2021/05/30 01:27:05;;;;;;;11.75;10.65;;;8.90;99.90;;;;;;5030842;28;20862;-37
2021/05/30 01:29:32;;;;;;;11.30;9.40;;;9.00;99.90;;;;;;5030304;28;20254;-38
2021/05/30 01:31:59;;;;;;;12.25;11.00;;;9.10;99.90;;;;;;5030397;28;20207;-37
2021/05/30 01:34:25;;;;;;;13.88;10.52;;;9.20;99.90;;;;;;5042832;23;20283;-34
2021/05/30 01:36:52;;;;;;;11.18;10.07;;;9.10;99.90;;;;;;5029830;28;20234;-35
2021/05/30 01:39:19;;;;;;;10.52;9.52;;;9.00;99.90;;;;;;5028831;28;20258;-36
2021/05/30 01:41:47;;;;;;;12.68;9.95;;;9.10;99.90;;;;;;5024155;28;20789;-35
2021/05/30 01:44:14;;;;;;;11.45;10.25;;;9.20;99.90;;;;;;5009822;28;20232;-35
2021/05/30 01:46:40;;;;;;;10.45;9.45;;;9.20;99.90;;;;;;5009793;28;20255;-37
2021/05/30 01:49:07;;;;;;;10.57;8.77;;;9.30;99.90;;;;;;5009931;28;20224;-36
2021/05/30 01:51:36;;;;;;;11.43;10.15;;;9.30;99.90;;;;;;5009584;28;20210;-36
2021/05/30 01:54:06;;;;;;;11.30;10.15;;;9.40;99.90;;;;;;5009817;28;20200;-35
2021/05/30 01:59:19;;;;;;;11.38;10.18;;;9.30;99.90;;;;;;5011241;28;20231;-36
2021/05/30 02:01:49;;;;;;;10.00;9.00;;;9.30;99.90;;;;;;5032567;23;20232;-78
2021/05/30 02:04:15;;;;;;;11.02;9.68;;;9.30;99.90;;;;;;5015296;28;20211;-78
2021/05/30 02:06:43;;;;;;;11.77;9.88;;;9.30;99.90;;;;;;5015513;28;20204;-77
2021/05/30 02:09:10;;;;;;;10.52;9.52;;;9.20;99.90;;;;;;5016036;28;20220;-78
2021/05/30 02:11:38;;;;;;;11.50;10.10;;;9.10;99.90;;;;;;5017585;28;20215;-78
2021/05/30 02:14:06;;;;;;;9.75;8.75;;;9.10;99.90;;;;;;5017540;28;20186;-77
2021/05/30 02:16:37;;;;;;;9.77;8.82;;;9.20;99.90;;;;;;5017132;28;20200;-78
2021/05/30 02:19:04;;;;;;;11.30;9.88;;;9.20;99.90;;;;;;5012404;28;20207;-78
2021/05/30 02:21:39;;;;;;;11.85;10.52;;;9.30;99.90;;;;;;5012305;28;20225;-78
2021/05/30 02:24:07;;;;;;;14.55;10.95;;;9.30;99.90;;;;;;5012610;28;20277;-78
2021/05/30 02:26:34;;;;;;;11.60;10.45;;;9.40;99.90;;;;;;5012211;28;20204;-79
2021/05/30 02:29:02;;;;;;;11.38;9.63;;;9.40;99.90;;;;;;5012342;28;20224;-78
2021/05/30 02:31:28;;;;;;;10.48;9.55;;;9.40;99.90;;;;;;5010879;28;20231;-78
2021/05/30 02:33:56;;;;;;;11.60;8.57;;;9.40;99.90;;;;;;5012133;28;20209;-79
2021/05/30 02:36:23;;;;;;;12.73;10.60;;;9.30;99.90;;;;;;5011458;28;20257;-79
2021/05/30 02:38:49;;;;;;;10.90;9.77;;;9.20;99.90;;;;;;5009581;28;20233;-78
2021/05/30 02:41:16;;;;;;;10.00;9.02;;;9.20;99.90;;;;;;5010931;28;20221;-79
2021/05/30 02:43:43;;;;;;;11.02;9.95;;;9.20;99.90;;;;;;5010449;28;20216;-78
2021/05/30 02:46:10;;;;;;;10.30;9.27;;;9.10;99.90;;;;;;5010055;28;20197;-78
2021/05/30 02:48:36;;;;;;;10.50;9.30;;;8.90;99.90;;;;;;5011044;28;20193;-78
2021/05/30 02:51:04;;;;;;;11.63;10.40;;;8.80;99.90;;;;;;5015001;28;20225;-78
2021/05/30 02:53:33;;;;;;;12.38;11.15;;;8.60;99.90;;;;;;5013875;28;20197;-78
2021/05/30 02:56:02;;;;;;;10.68;9.60;;;8.60;99.90;;;;;;5030293;28;20201;-78
2021/05/30 02:58:29;;;;;;;12.60;10.93;;;8.50;99.90;;;;;;5014666;28;20201;-78
2021/05/30 03:00:57;;;;;;;12.65;11.40;;;8.60;99.90;;;;;;5009072;28;20249;-78
2021/05/30 03:03:37;;;;;;;9.82;8.90;;;8.60;99.90;;;;;;4999702;28;20195;-78
2021/05/30 03:06:05;;;;;;;13.57;10.50;;;8.50;99.90;;;;;;4999536;28;20201;-78
2021/05/30 03:08:31;;;;;;;9.32;8.43;;;8.40;99.90;;;;;;4997632;28;20193;-78
2021/05/30 03:10:58;;;;;;;10.73;9.10;;;8.50;99.90;;;;;;4998922;28;20221;-78
2021/05/30 03:13:25;;;;;;;11.38;9.50;;;8.50;99.90;;;;;;4998801;28;20220;-78
2021/05/30 03:15:51;;;;;;;12.00;10.70;;;8.60;99.90;;;;;;4998620;28;20229;-78
2021/05/30 03:18:18;;;;;;;11.85;10.63;;;8.60;99.90;;;;;;4997723;28;20225;-78
2021/05/30 03:20:45;;;;;;;12.43;9.93;;;8.60;99.90;;;;;;4996997;28;20218;-77
2021/05/30 03:23:12;;;;;;;10.18;9.18;;;8.40;99.90;;;;;;4995374;28;20216;-78
2021/05/30 03:25:39;;;;;;;11.10;9.98;;;8.20;99.90;;;;;;4992249;28;20202;-79
2021/05/30 03:28:06;;;;;;;10.68;9.65;;;8.10;99.90;;;;;;4991573;28;20201;-79
2021/05/30 03:30:38;;;;;;;10.43;9.30;;;8.30;99.90;;;;;;4991704;28;20353;-79
2021/05/30 03:33:08;;;;;;;9.93;8.93;;;8.40;99.90;;;;;;4990530;28;20190;-79
2021/05/30 03:35:35;;;;;;;11.15;8.88;;;8.50;99.90;;;;;;4989873;28;20201;-79
2021/05/30 03:38:22;;;;;;;10.52;9.30;;;8.60;99.90;;;;;;4989735;28;20273;-79
2021/05/30 03:41:14;;;;;;;10.23;9.23;;;8.70;99.90;;;;;;4990253;28;20229;-78
2021/05/30 03:44:20;;;;;;;9.88;8.95;;;8.60;99.90;;;;;;4989707;28;20210;-79
2021/05/30 03:46:55;;;;;;;10.95;9.65;;;8.80;99.90;;;;;;4990585;28;20207;-79
2021/05/30 03:49:24;;;;;;;9.70;8.80;;;8.70;99.90;;;;;;4988562;28;20221;-79
2021/05/30 03:51:51;;;;;;;10.82;9.40;;;8.70;99.90;;;;;;4987315;28;20233;-78
2021/05/30 03:54:19;;;;;;;10.50;9.35;;;8.70;99.90;;;;;;4989769;28;20201;-78
2021/05/30 03:56:46;;;;;;;11.35;10.25;;;8.60;99.90;;;;;;4987916;28;20219;-78
2021/05/30 03:59:13;;;;;;;13.38;9.77;;;8.50;99.90;;;;;;5006032;28;20216;-78
2021/05/30 04:01:39;;;;;;;11.65;10.43;;;8.50;99.90;;;;;;5001189;28;20228;-78
2021/05/30 04:04:06;;;;;;;10.38;9.38;;;8.40;99.90;;;;;;5009546;28;20263;-79
2021/05/30 04:06:36;;;;;;;12.82;10.70;;;8.30;99.90;;;;;;5010202;28;20197;-79
2021/05/30 04:09:03;;;;;;;10.50;9.48;;;8.20;99.90;;;;;;4997463;28;20229;-78
2021/05/30 04:11:30;;;;;;;10.82;9.73;;;8.30;99.90;;;;;;4994919;28;20240;-79
2021/05/30 04:13:57;;;;;;;10.45;9.35;;;8.40;99.90;;;;;;4997872;28;20202;-79
2021/05/30 04:16:24;;;;;;;11.43;10.18;;;8.60;99.90;;;;;;5001320;28;20205;-79
2021/05/30 04:18:51;;;;;;;11.85;10.73;;;8.60;99.90;;;;;;5008695;28;20201;-79
2021/05/30 04:21:21;;;;;;;14.52;10.07;;;8.50;99.90;;;;;;5009097;28;20241;-79
2021/05/30 04:23:48;;;;;;;12.13;10.88;;;8.50;99.90;;;;;;5009211;28;20208;-79
2021/05/30 04:26:15;;;;;;;12.45;10.88;;;8.50;99.90;;;;;;5007107;28;20204;-79
2021/05/30 04:28:44;;;;;;;11.45;10.32;;;8.60;99.90;;;;;;5007351;28;20281;-79
2021/05/30 04:31:12;;;;;;;13.15;10.30;;;8.60;99.90;;;;;;5008162;28;20221;-78
2021/05/30 04:33:38;;;;;;;14.65;11.45;;;8.60;99.90;;;;;;5007753;28;20205;-79
2021/05/30 04:36:05;;;;;;;14.90;12.70;;;8.60;99.90;;;;;;5007324;28;20213;-79
2021/05/30 04:38:32;;;;;;;12.80;11.52;;;8.60;99.90;;;;;;5007846;28;20201;-79
2021/05/30 04:41:00;;;;;;;14.05;12.60;;;8.70;99.90;;;;;;5007662;28;20619;-79
2021/05/30 04:43:27;;;;;;;19.13;13.23;;;8.60;99.90;;;;;;5008575;28;20221;-79
2021/05/30 04:45:55;;;;;;;16.42;13.38;;;8.70;99.90;;;;;;5039423;28;20208;-79
2021/05/30 04:48:22;;;;;;;17.58;13.70;;;8.80;99.90;;;;;;5006475;28;20207;-78
2021/05/30 04:51:05;;;;;;;14.50;12.30;;;8.80;99.90;;;;;;5007904;28;20233;-79
2021/05/30 04:53:34;;;;;;;15.43;13.57;;;8.80;99.90;;;;;;5007423;28;20288;-79
2021/05/30 04:56:02;;;;;;;16.30;14.40;;;9.00;99.90;;;;;;5006296;28;20600;-79
2021/05/30 04:58:29;;;;;;;20.90;14.18;;;9.00;99.90;;;;;;5034166;28;20229;-78
2021/05/30 05:00:57;;;;;;;15.25;13.55;;;9.10;99.90;;;;;;4983250;28;20244;-78
2021/05/30 05:03:25;;;;;;;16.38;13.18;;;9.20;99.90;;;;;;4984625;28;20201;-78
2021/05/30 05:06:05;;;;;;;17.95;13.20;;;9.30;99.90;;;;;;4984787;28;20204;-78
2021/05/30 05:08:42;;;;;;;16.85;11.68;;;9.50;99.90;;;;;;4982315;28;20206;-78
2021/05/30 05:11:15;;;;;;;18.83;13.52;;;9.60;99.90;;;;;;4985904;28;20217;-79
2021/05/30 05:13:50;;;;;;;15.88;14.05;;;9.60;99.90;;;;;;4987897;28;20209;-79
2021/05/30 05:16:48;;;;;;;15.55;14.02;;;9.80;99.90;;;;;;4988349;28;20220;-78
2021/05/30 05:20:15;;;;;;;16.52;13.40;;;9.90;99.90;;;;;;4950198;28;20202;-79
2021/05/30 05:23:01;;;;;;;21.65;13.50;;;9.90;99.90;;;;;;4983920;28;20213;-79
2021/05/30 05:25:39;;;;;;;17.08;14.07;;;9.90;99.90;;;;;;4987962;28;20220;-79
2021/05/30 05:28:08;;;;;;;15.85;14.25;;;10.00;99.90;;;;;;4988222;28;20197;-79
2021/05/30 05:31:14;;;;;;;22.35;17.00;;;10.40;99.90;;;;;;4986425;28;20763;-79
2021/05/30 05:34:06;;;;;;;17.00;15.20;;;10.80;99.90;;;;;;4985246;28;20292;-79
2021/05/30 05:36:35;;;;;;;21.17;15.95;;;10.90;99.90;;;;;;4984972;28;20201;-79
2021/05/30 05:39:32;;;;;;;22.45;15.90;;;10.80;99.90;;;;;;4985404;28;20206;-78
2021/05/30 05:41:59;;;;;;;17.33;15.48;;;10.90;99.90;;;;;;4962057;28;20236;-79
2021/05/30 05:44:43;;;;;;;19.75;15.13;;;11.00;99.90;;;;;;4984047;28;20292;-79
2021/05/30 05:47:26;;;;;;;21.02;15.50;;;10.90;99.90;;;;;;5003865;28;20207;-79
2021/05/30 05:49:57;;;;;;;14.48;12.48;;;10.60;99.90;;;;;;5000113;28;20231;-79
2021/05/30 05:52:30;;;;;;;18.58;14.63;;;10.80;99.90;;;;;;5004758;28;20233;-79
2021/05/30 05:54:57;;;;;;;19.85;13.93;;;11.00;99.90;;;;;;5005748;28;20228;-79
2021/05/30 05:57:24;;;;;;;18.52;13.80;;;11.20;99.90;;;;;;5003575;28;20692;-79
2021/05/30 06:00:04;;;;;;;20.23;14.63;;;11.20;99.90;;;;;;5003802;28;20201;-79
2021/05/30 06:02:38;;;;;;;14.35;12.88;;;11.30;99.90;;;;;;5002887;28;20240;-79
2021/05/30 06:05:13;;;;;;;19.02;15.13;;;11.30;99.90;;;;;;5001820;28;20197;-79
2021/05/30 06:07:41;;;;;;;26.50;15.23;;;11.40;99.90;;;;;;5003482;28;20580;-80
2021/05/30 06:10:11;;;;;;;17.23;14.35;;;11.50;99.90;;;;;;5007447;28;20247;-80
2021/05/30 06:12:41;;;;;;;17.40;15.23;;;11.70;99.90;;;;;;5007663;28;20208;-80
2021/05/30 06:15:26;;;;;;;14.27;12.75;;;11.70;99.90;;;;;;5006428;28;20232;-79
2021/05/30 06:18:15;;;;;;;20.80;15.00;;;11.60;99.90;;;;;;4994084;28;20228;-79
2021/05/30 06:21:16;;;;;;;15.52;13.68;;;11.70;99.90;;;;;;4984322;28;20289;-79
2021/05/30 06:23:49;;;;;;;16.23;13.23;;;11.70;99.90;;;;;;4987396;28;20194;-80
2021/05/30 06:26:16;;;;;;;16.30;12.90;;;11.90;99.90;;;;;;4990874;28;20228;-80
2021/05/30 06:28:49;;;;;;;14.75;13.23;;;12.10;99.90;;;;;;4989088;28;20257;-80
2021/05/30 06:31:16;;;;;;;15.10;13.55;;;12.10;99.90;;;;;;4989365;28;20272;-80
2021/05/30 06:33:43;;;;;;;14.57;12.13;;;12.30;99.90;;;;;;4991589;28;20233;-80
2021/05/30 06:36:19;;;;;;;19.75;13.75;;;12.40;99.90;;;;;;4987619;28;20197;-79
2021/05/30 06:38:49;;;;;;;15.43;12.75;;;12.40;99.90;;;;;;4986109;28;20198;-79
2021/05/30 06:41:17;;;;;;;17.88;13.05;;;12.80;99.90;;;;;;5002482;28;20241;-79
2021/05/30 06:43:51;;;;;;;18.02;12.73;;;12.80;99.90;;;;;;4988152;28;20206;-80
2021/05/30 06:46:22;;;;;;;13.27;11.85;;;13.00;99.90;;;;;;4988553;28;20198;-79
2021/05/30 06:48:52;;;;;;;15.50;12.85;;;13.00;99.90;;;;;;4989453;28;20205;-80
2021/05/30 06:51:22;;;;;;;15.32;12.48;;;13.10;99.90;;;;;;4994857;28;20268;-79
2021/05/30 06:53:51;;;;;;;15.93;11.90;;;13.10;99.90;;;;;;5009044;28;20205;-80
2021/05/30 06:56:18;;;;;;;17.60;13.05;;;13.20;99.90;;;;;;5008833;28;20217;-79
2021/05/30 06:58:46;;;;;;;19.85;13.75;;;13.60;99.90;;;;;;5008065;28;20197;-79
2021/05/30 07:01:14;;;;;;;13.73;12.32;;;14.00;99.90;;;;;;5006392;28;20738;-80
2021/05/30 07:03:40;;;;;;;17.90;13.38;;;13.90;99.90;;;;;;5007967;28;20202;-79
2021/05/30 07:06:09;;;;;;;15.35;12.20;;;14.10;99.90;;;;;;5002875;28;20202;-79
2021/05/30 07:08:36;;;;;;;13.95;11.77;;;14.10;99.90;;;;;;4990889;28;20202;-79
2021/05/30 07:11:03;;;;;;;12.52;10.77;;;13.90;99.90;;;;;;5007605;28;20285;-80
2021/05/30 07:13:30;;;;;;;13.00;10.25;;;14.00;99.90;;;;;;5008842;28;20198;-80
2021/05/30 07:15:58;;;;;;;15.15;11.70;;;14.10;99.90;;;;;;5008376;28;20257;-79
2021/05/30 07:18:25;;;;;;;14.35;11.50;;;14.30;99.90;;;;;;4999564;28;20193;-79
2021/05/30 07:20:56;;;;;;;11.98;9.77;;;14.40;99.90;;;;;;4999402;28;20228;-79
2021/05/30 07:23:30;;;;;;;14.13;11.90;;;14.40;99.90;;;;;;4989613;28;20627;-79
2021/05/30 07:25:57;;;;;;;16.23;12.02;;;14.40;99.90;;;;;;5005170;28;20217;-79
2021/05/30 07:28:38;;;;;;;13.95;10.32;;;14.50;99.90;;;;;;5003763;28;20197;-79
2021/05/30 07:31:05;;;;;;;15.23;10.57;;;14.60;99.90;;;;;;5005286;28;20336;-80
2021/05/30 07:33:32;;;;;;;16.08;12.13;;;14.50;99.90;;;;;;4997626;28;20718;-80
2021/05/30 07:35:58;;;;;;;16.10;11.75;;;14.80;99.90;;;;;;4998501;28;20213;-80
2021/05/30 07:38:25;;;;;;;13.38;10.52;;;15.00;99.90;;;;;;4995725;28;20606;-79
2021/05/30 07:40:59;;;;;;;11.63;10.50;;;14.90;99.90;;;;;;4998332;28;20216;-79
2021/05/30 07:43:29;;;;;;;10.77;9.73;;;15.00;99.90;;;;;;4998093;28;20628;-80
2021/05/30 07:45:56;;;;;;;14.90;10.95;;;15.00;99.90;;;;;;4998608;28;20583;-80
2021/05/30 07:48:26;;;;;;;12.63;9.50;;;15.00;99.90;;;;;;4999957;28;20201;-80
2021/05/30 07:50:53;;;;;;;34.90;28.92;;;14.90;99.90;;;;;;4996438;28;20247;-80
2021/05/30 07:53:20;;;;;;;16.90;13.88;;;15.00;99.90;;;;;;4999368;28;20664;-80
2021/05/30 07:55:47;;;;;;;17.55;11.32;;;15.10;99.90;;;;;;5001174;28;20519;-80
2021/05/30 07:58:15;;;;;;;14.88;9.95;;;15.40;99.90;;;;;;5001044;28;20209;-79
2021/05/30 08:00:43;;;;;;;13.57;12.25;;;15.50;99.90;;;;;;4999321;28;20217;-79
2021/05/30 08:03:10;;;;;;;11.73;10.30;;;15.50;99.90;;;;;;4981885;28;20546;-79
2021/05/30 08:05:37;;;;;;;12.77;10.10;;;15.80;99.90;;;;;;4979452;28;20208;-79
2021/05/30 08:08:04;;;;;;;11.20;10.10;;;15.90;99.90;;;;;;4984089;28;20230;-79
2021/05/30 08:10:31;;;;;;;11.25;9.85;;;15.90;99.90;;;;;;4992604;28;20252;-80
2021/05/30 08:12:59;;;;;;;10.63;9.18;;;16.00;99.90;;;;;;4988648;28;20201;-79
2021/05/30 08:15:25;;;;;;;14.07;8.90;;;15.90;99.90;;;;;;4997326;28;20684;-79
2021/05/30 08:17:54;;;;;;;13.02;9.98;;;16.10;99.90;;;;;;4999414;28;20200;-80
2021/05/30 08:21:04;;;;;;;12.73;9.18;;;16.10;99.90;;;;;;4998568;28;20201;-81
2021/05/30 08:23:32;;;;;;;12.60;10.07;;;16.10;99.90;;;;;;5000082;28;20284;-81
2021/05/30 08:26:18;;;;;;;11.77;9.10;;;16.30;99.90;;;;;;4999987;28;20201;-81
2021/05/30 08:29:06;;;;;;;9.77;8.45;;;16.10;99.90;;;;;;5003684;28;20197;-81
2021/05/30 08:31:52;;;;;;;12.52;8.38;;;16.30;99.90;;;;;;5001690;28;20217;-80
2021/05/30 08:34:49;;;;;;;10.63;8.90;;;16.40;99.90;;;;;;4999293;28;20205;-81
2021/05/30 08:40:57;;;;;;;8.30;7.28;;;16.60;99.90;;;;;;4997081;28;20268;-81
2021/05/30 08:43:41;;;;;;;14.35;9.38;;;16.60;99.90;;;;;;5004066;28;20194;-81
2021/05/30 08:46:09;;;;;;;9.95;8.98;;;16.80;99.90;;;;;;5003804;28;20201;-81
2021/05/30 08:52:07;;;;;;;10.10;8.60;;;17.00;99.90;;;;;;4998491;28;20216;-81
2021/05/30 08:57:47;;;;;;;14.55;10.43;;;17.20;99.90;;;;;;4992800;28;20197;-81
2021/05/30 09:00:54;;;;;;;11.82;9.65;;;17.40;99.90;;;;;;4997963;28;20571;-81
2021/05/30 09:07:16;;;;;;;9.55;7.13;;;17.70;99.90;;;;;;4983241;28;20646;-81
2021/05/30 09:09:52;;;;;;;10.05;8.65;;;17.80;99.90;;;;;;4980838;28;20276;-79
2021/05/30 09:12:22;;;;;;;9.43;7.45;;;18.00;99.90;;;;;;4982891;28;20443;-80
2021/05/30 09:14:51;;;;;;;8.95;8.05;;;17.80;99.90;;;;;;4990443;28;20197;-79
2021/05/30 09:17:24;;;;;;;9.20;7.88;;;18.10;99.90;;;;;;4989098;28;20233;-79
2021/05/30 09:19:52;;;;;;;8.77;7.97;;;18.20;99.90;;;;;;4987804;28;20198;-79
2021/05/30 09:22:31;;;;;;;12.23;8.63;;;18.00;99.90;;;;;;4987301;28;20221;-79
2021/05/30 09:25:11;;;;;;;9.88;8.88;;;18.10;99.90;;;;;;4990769;28;20201;-79
2021/05/30 09:27:46;;;;;;;9.50;8.45;;;18.00;99.90;;;;;;4991292;28;20557;-79
2021/05/30 09:30:19;;;;;;;8.43;7.63;;;17.80;99.90;;;;;;4996950;28;20221;-80
2021/05/30 09:33:14;;;;;;;9.88;7.22;;;18.00;99.90;;;;;;5010420;28;20201;-79
2021/05/30 09:35:53;;;;;;;8.05;7.25;;;18.30;99.90;;;;;;5003749;28;20205;-80
2021/05/30 09:38:22;;;;;;;10.38;7.32;;;18.30;99.90;;;;;;5008279;28;20223;-80
2021/05/30 09:41:12;;;;;;;8.73;7.07;;;18.30;99.90;;;;;;5007853;28;20487;-80
2021/05/30 09:43:48;;;;;;;7.53;6.50;;;18.60;99.90;;;;;;5009297;28;20275;-79
2021/05/30 09:46:17;;;;;;;7.93;6.45;;;18.60;99.90;;;;;;5006604;28;20205;-80
2021/05/30 09:48:55;;;;;;;8.75;7.60;;;18.30;99.90;;;;;;5006503;28;20213;-79
2021/05/30 09:51:46;;;;;;;8.60;7.03;;;18.70;99.90;;;;;;5028304;28;20688;-78
2021/05/30 09:54:18;;;;;;;9.55;6.85;;;18.50;99.90;;;;;;5027077;28;20217;-79
2021/05/30 09:56:57;;;;;;;8.45;6.55;;;18.30;99.90;;;;;;5008472;28;20518;-79
2021/05/30 09:59:39;;;;;;;10.00;6.72;;;18.60;99.90;;;;;;4990899;28;20232;-80
2021/05/30 10:02:12;;;;;;;11.18;8.15;;;18.50;99.90;;;;;;5009928;28;20237;-80
2021/05/30 10:04:40;;;;;;;9.50;7.22;;;18.70;99.90;;;;;;4998785;28;20209;-79
2021/05/30 10:07:07;;;;;;;7.88;6.85;;;18.70;99.90;;;;;;5007589;28;20602;-80
2021/05/30 10:09:34;;;;;;;10.60;7.38;;;19.10;99.90;;;;;;5015422;28;20213;-79
2021/05/30 10:12:03;;;;;;;8.65;6.72;;;19.30;99.90;;;;;;5015189;28;20232;-79
2021/05/30 10:14:31;;;;;;;6.75;6.00;;;19.60;99.90;;;;;;4998025;28;20201;-80
2021/05/30 10:16:59;;;;;;;7.63;5.85;;;19.60;99.90;;;;;;5014495;28;20199;-81
2021/05/30 10:19:29;;;;;;;7.65;6.85;;;19.80;99.90;;;;;;5014921;28;20220;-79
2021/05/30 10:21:59;;;;;;;9.68;7.75;;;19.80;99.90;;;;;;5013868;28;20236;-80
2021/05/30 10:24:27;;;;;;;8.68;6.70;;;19.90;99.90;;;;;;5004173;28;20202;-80
2021/05/30 10:27:14;;;;;;;7.43;6.70;;;19.90;99.90;;;;;;5003240;28;20205;-83
2021/05/30 10:29:41;;;;;;;10.57;9.35;;;20.10;99.90;;;;;;5012625;28;20224;-80
2021/05/30 10:32:18;;;;;;;8.40;6.15;;;20.30;99.90;;;;;;5014654;28;20230;-80
2021/05/30 10:35:10;;;;;;;7.78;7.10;;;20.20;99.90;;;;;;5013567;28;20197;-81
2021/05/30 10:37:44;;;;;;;7.82;7.05;;;20.20;99.90;;;;;;5003757;28;20198;-82
2021/05/30 10:40:27;;;;;;;13.23;6.85;;;20.20;99.90;;;;;;4997623;28;20228;-82
2021/05/30 10:43:23;;;;;;;5.03;4.32;;;20.20;99.90;;;;;;5007975;28;20208;-80
2021/05/30 10:46:02;;;;;;;4.43;4.03;;;20.30;99.90;;;;;;5012043;28;20599;-81
2021/05/30 10:48:30;;;;;;;4.00;3.67;;;20.40;99.90;;;;;;5010047;28;20208;-81
2021/05/30 10:53:53;;;;;;;8.32;7.00;;;21.00;99.90;;;;;;4987606;28;20200;-80
2021/05/30 10:56:31;;;;;;;6.25;4.68;;;20.80;99.90;;;;;;5011023;28;20240;-80
2021/05/30 10:59:27;;;;;;;6.60;5.45;;;21.00;99.90;;;;;;5009660;28;21703;-81
2021/05/30 11:01:56;;;;;;;4.68;4.20;;;20.90;99.90;;;;;;5012057;28;20233;-80
2021/05/30 11:04:39;;;;;;;3.47;3.15;;;21.10;99.90;;;;;;5012094;28;20401;-80
2021/05/30 11:07:39;;;;;;;7.13;5.63;;;21.10;99.90;;;;;;5012248;28;20211;-80
2021/05/30 11:10:11;;;;;;;8.80;6.47;;;21.10;99.90;;;;;;4997257;28;20254;-81
2021/05/30 11:12:51;;;;;;;6.93;4.35;;;21.20;99.90;;;;;;4975889;28;20202;-80
2021/05/30 11:15:31;;;;;;;7.63;4.97;;;21.10;99.90;;;;;;4991789;28;20201;-80
2021/05/30 11:18:00;;;;;;;8.32;5.22;;;21.00;99.90;;;;;;4991148;28;20198;-80
2021/05/30 11:20:42;;;;;;;6.32;4.72;;;21.10;99.90;;;;;;4988591;28;20233;-80
2021/05/30 11:23:12;;;;;;;5.45;4.13;;;21.30;99.90;;;;;;5011751;28;20201;-80
2021/05/30 11:25:43;;;;;;;5.53;4.22;;;21.40;99.90;;;;;;5011986;28;20257;-80
2021/05/30 11:28:11;;;;;;;5.18;4.68;;;21.30;99.90;;;;;;5011706;28;20206;-80
2021/05/30 11:30:59;;;;;;;6.95;4.60;;;21.50;99.90;;;;;;5010536;28;20236;-80
2021/05/30 11:33:32;;;;;;;10.45;4.25;;;21.50;99.90;;;;;;5012204;28;20204;-81
2021/05/30 11:36:00;;;;;;;11.35;5.55;;;21.70;99.90;;;;;;5043538;28;20239;-81
2021/05/30 11:38:39;;;;;;;6.35;5.00;;;21.70;99.90;;;;;;5011742;28;20209;-81
2021/05/30 11:41:16;;;;;;;4.55;4.15;;;21.80;99.90;;;;;;5003453;28;20236;-80
2021/05/30 11:44:11;;;;;;;4.47;4.07;;;21.90;99.90;;;;;;4994909;28;20197;-81
2021/05/30 11:46:42;;;;;;;5.57;3.83;;;21.70;99.90;;;;;;4993796;28;20225;-80
2021/05/30 11:49:16;;;;;;;5.22;4.25;;;21.80;99.90;;;;;;5011226;28;20205;-80
2021/05/30 11:52:04;;;;;;;5.40;3.75;;;21.80;99.90;;;;;;5000306;28;20692;-81
2021/05/30 11:54:33;;;;;;;3.95;3.28;;;22.00;99.90;;;;;;4992472;28;20202;-80
2021/05/30 11:57:03;;;;;;;5.70;3.75;;;22.10;99.90;;;;;;4992972;28;20217;-81
2021/05/30 11:59:32;;;;;;;6.38;3.35;;;22.40;99.90;;;;;;4992534;28;20229;-80
2021/05/30 12:02:00;;;;;;;8.05;4.03;;;22.60;99.90;;;;;;4990888;28;20229;-80
2021/05/30 12:04:32;;;;;;;6.07;5.57;;;22.60;99.90;;;;;;5009717;28;20225;-81
2021/05/30 12:06:59;;;;;;;4.28;3.47;;;22.60;99.90;;;;;;5011786;28;20213;-80
2021/05/30 12:09:52;;;;;;;4.00;3.63;;;22.80;99.90;;;;;;4997176;28;20216;-81
2021/05/30 12:12:32;;;;;;;4.28;3.88;;;22.70;99.90;;;;;;4992229;28;20229;-81
2021/05/30 12:15:11;;;;;;;4.78;3.85;;;22.90;99.90;;;;;;4998845;28;20208;-81
2021/05/30 12:17:41;;;;;;;3.90;3.50;;;22.70;99.90;;;;;;5012330;28;20224;-81
2021/05/30 12:20:17;;;;;;;5.10;3.33;;;22.70;99.90;;;;;;5043343;28;20208;-80
2021/05/30 12:22:44;;;;;;;7.43;5.53;;;22.80;99.90;;;;;;5036097;28;20272;-80
2021/05/30 12:25:11;;;;;;;5.68;3.63;;;22.80;99.90;;;;;;5010374;28;20277;-81
2021/05/30 12:27:38;;;;;;;3.50;3.10;;;23.00;99.90;;;;;;5011343;28;20209;-81
2021/05/30 12:30:06;;;;;;;4.68;3.25;;;23.50;99.90;;;;;;5011033;28;20220;-80
2021/05/30 12:32:33;;;;;;;4.78;3.17;;;24.10;99.90;;;;;;4997801;28;20202;-80
2021/05/30 12:35:01;;;;;;;2.95;2.58;;;24.10;99.90;;;;;;4991323;28;20210;-81
2021/05/30 12:37:42;;;;;;;3.63;3.33;;;23.90;99.90;;;;;;4991232;28;20198;-81
2021/05/30 12:40:11;;;;;;;4.63;4.22;;;23.90;99.90;;;;;;4991763;28;20209;-81
2021/05/30 12:42:40;;;;;;;6.20;4.65;;;23.30;99.90;;;;;;4991234;28;20205;-81
2021/05/30 12:45:09;;;;;;;4.00;2.78;;;23.00;99.90;;;;;;4992057;28;20230;-81
2021/05/30 12:47:42;;;;;;;3.30;2.83;;;23.10;99.90;;;;;;4990168;28;20225;-81
2021/05/30 12:50:11;;;;;;;5.93;3.25;;;23.50;99.90;;;;;;4990502;28;20268;-81
2021/05/30 12:52:47;;;;;;;3.97;3.58;;;24.00;99.90;;;;;;4991285;28;20202;-81
2021/05/30 12:55:14;;;;;;;4.72;4.32;;;24.10;99.90;;;;;;4991157;28;20197;-81
2021/05/30 12:57:45;;;;;;;3.20;2.65;;;24.20;99.90;;;;;;4990974;28;20277;-81
2021/05/30 13:00:24;;;;;;;4.32;2.83;;;24.70;99.90;;;;;;4988907;28;20198;-81
2021/05/30 13:02:56;;;;;;;4.28;2.08;;;25.00;99.90;;;;;;4990622;28;20237;-81
2021/05/30 13:05:33;;;;;;;3.53;1.80;;;25.00;99.90;;;;;;4990762;28;20206;-81
2021/05/30 13:08:12;;;;;;;3.00;2.60;;;25.00;99.90;;;;;;4991166;28;20221;-81
2021/05/30 13:10:59;;;;;;;3.10;2.78;;;25.30;99.90;;;;;;4989923;28;20253;-81
2021/05/30 13:13:29;;;;;;;17.55;15.43;;;25.70;99.90;;;;;;4991088;28;20212;-82
2021/05/30 13:15:57;;;;;;;5.88;2.97;;;25.80;99.90;;;;;;4989925;28;20202;-81
2021/05/30 13:18:24;;;;;;;7.80;4.72;;;25.70;99.90;;;;;;5002137;28;20205;-81
2021/05/30 13:20:53;;;;;;;3.10;1.88;;;25.40;99.90;;;;;;5010416;28;20244;-81
2021/05/30 13:23:22;;;;;;;5.90;2.78;;;25.00;99.90;;;;;;5009867;28;20204;-81
2021/05/30 13:25:51;;;;;;;3.65;3.00;;;24.90;99.90;;;;;;5011255;28;20683;-81